Sulphur Springs, Texas
Current Conditions -  °F | °C
As of 11:55 AM on Friday 31 Oct 2014 (Local Time) from KSLR Reporting Station
Clear Clear  
Wind Chill: 63°   Ceiling: Unl
Heat Index: 63°   Visibility: 10mi
Dew Point: 44°   Wind: 16mph
Humidity: 50%   Direction: 350°N
Pressure: 30.32"   Gusts: 23mph
Location:  33.14°N, 95.6°W
Report Text: KSLR 311655Z AUTO 35014G20KT 10SM CLR 17/06 A3032 RMK AO2 T01700064
Loading
Personal Weather Stations






























Interactive Weather Map
Tropical Storm Tracking
New forecast layout! Learn more

10-Day Weather Forecast

Advertisements
Track Severe Weather on mobile